createdAt,value
2022-07-31T00:00:44.209Z,94.56
2022-07-31T00:03:12.767Z,94.03
2022-07-31T00:05:41.925Z,93.46
2022-07-31T00:08:10.533Z,93.78
2022-07-31T00:10:40.098Z,93.79
2022-07-31T00:13:10.415Z,93.87
2022-07-31T00:15:38.404Z,94.10
2022-07-31T00:18:06.319Z,92.58
2022-07-31T00:20:34.259Z,93.66
2022-07-31T00:23:02.304Z,93.26
2022-07-31T00:25:30.742Z,93.54
2022-07-31T00:27:58.807Z,93.43
2022-07-31T00:30:27.984Z,94.24
2022-07-31T00:32:56.133Z,93.84
2022-07-31T00:35:24.263Z,94.75
2022-07-31T00:37:54.785Z,95.04
2022-07-31T00:40:30.269Z,95.92
2022-07-31T00:42:58.134Z,94.90
2022-07-31T00:45:26.012Z,95.49
2022-07-31T00:47:58.642Z,94.62
2022-07-31T00:50:26.519Z,94.51
2022-07-31T00:52:55.207Z,94.71
2022-07-31T00:55:23.709Z,94.39
2022-07-31T00:57:51.938Z,94.57
2022-07-31T01:00:19.923Z,93.83
2022-07-31T01:02:50.299Z,94.40
2022-07-31T01:05:19.781Z,94.60
2022-07-31T01:07:48.896Z,93.45
2022-07-31T01:10:26.927Z,93.34
2022-07-31T01:13:00.233Z,93.32
2022-07-31T01:15:29.951Z,92.57
2022-07-31T01:17:59.506Z,92.39
2022-07-31T01:20:30.165Z,92.00
2022-07-31T01:23:17.260Z,91.93
2022-07-31T01:26:13.583Z,91.67
2022-07-31T01:29:16.927Z,92.02
2022-07-31T01:31:49.048Z,92.49
2022-07-31T01:34:24.366Z,91.93
2022-07-31T01:37:01.915Z,93.08
2022-07-31T01:39:34.261Z,92.59
2022-07-31T01:42:06.271Z,92.50
2022-07-31T01:44:42.327Z,92.28
2022-07-31T01:47:12.637Z,92.34
2022-07-31T01:49:42.836Z,92.56
2022-07-31T01:52:11.369Z,92.97
2022-07-31T01:54:40.113Z,93.19
2022-07-31T01:57:10.308Z,93.24
2022-07-31T01:59:46.859Z,92.77
2022-07-31T02:02:42.318Z,92.54
2022-07-31T02:05:11.960Z,92.86
2022-07-31T02:07:42.092Z,93.05
2022-07-31T02:10:13.267Z,93.20
2022-07-31T02:12:41.917Z,93.47
2022-07-31T02:15:13.400Z,93.89
2022-07-31T02:17:46.201Z,94.23
2022-07-31T02:20:23.913Z,94.20
2022-07-31T02:22:55.776Z,94.34
2022-07-31T02:25:24.033Z,94.52
2022-07-31T02:27:53.942Z,94.78
2022-07-31T02:30:38.877Z,95.40
2022-07-31T02:33:09.994Z,95.46
2022-07-31T02:35:44.113Z,95.63
2022-07-31T02:38:22.145Z,95.95
2022-07-31T02:40:54.401Z,96.42
2022-07-31T02:43:22.875Z,96.54
2022-07-31T02:45:53.135Z,97.66
2022-07-31T02:48:21.767Z,98.32
2022-07-31T02:50:52.349Z,98.21
2022-07-31T02:53:21.816Z,98.48
2022-07-31T02:55:56.115Z,98.06
2022-07-31T02:58:24.123Z,98.88
2022-07-31T03:01:01.774Z,100.00
2022-07-31T03:03:32.857Z,100.00
2022-07-31T03:06:01.279Z,100.00
2022-07-31T03:08:29.513Z,100.00
2022-07-31T03:11:04.337Z,100.00
2022-07-31T03:13:34.922Z,100.00
2022-07-31T03:16:06.973Z,100.00
2022-07-31T03:18:35.592Z,100.00
2022-07-31T03:21:03.932Z,100.00
2022-07-31T03:23:36.431Z,100.00
2022-07-31T03:26:20.466Z,100.00
2022-07-31T03:28:48.694Z,100.00
2022-07-31T03:31:17.971Z,100.00
2022-07-31T03:33:45.801Z,100.00
2022-07-31T03:36:15.419Z,100.00
2022-07-31T03:38:46.485Z,100.00
2022-07-31T03:41:26.217Z,100.00
2022-07-31T03:43:55.227Z,100.00
2022-07-31T03:46:26.116Z,100.00
2022-07-31T03:48:55.072Z,100.00
2022-07-31T03:51:26.730Z,100.00
2022-07-31T03:53:54.945Z,100.00
2022-07-31T03:56:57.909Z,100.00
2022-07-31T03:59:28.393Z,100.00
2022-07-31T04:02:06.761Z,100.00
2022-07-31T04:04:41.874Z,100.00
2022-07-31T04:07:09.906Z,100.00
2022-07-31T04:09:38.617Z,100.00
2022-07-31T04:12:07.960Z,100.00
2022-07-31T04:14:36.071Z,100.00
2022-07-31T04:17:06.175Z,100.00
2022-07-31T04:19:34.146Z,100.00
2022-07-31T04:22:03.350Z,100.00
2022-07-31T04:24:32.526Z,100.00
2022-07-31T04:27:10.718Z,100.00
2022-07-31T04:29:43.455Z,100.00
2022-07-31T04:32:13.025Z,100.00
2022-07-31T04:34:53.413Z,100.00
2022-07-31T04:37:21.386Z,99.43
2022-07-31T04:39:49.307Z,98.17
2022-07-31T04:42:17.157Z,98.98
2022-07-31T04:44:45.695Z,99.08
2022-07-31T04:47:15.023Z,98.82
2022-07-31T04:49:45.895Z,97.75
2022-07-31T04:52:16.794Z,98.12
2022-07-31T04:54:47.088Z,96.36
2022-07-31T04:57:21.250Z,96.72
2022-07-31T04:59:59.933Z,96.02
2022-07-31T05:02:33.161Z,96.56
2022-07-31T05:05:01.229Z,96.08
2022-07-31T05:07:34.587Z,94.88
2022-07-31T05:10:07.156Z,95.33
2022-07-31T05:12:36.537Z,95.47
2022-07-31T05:15:04.750Z,94.35
2022-07-31T05:17:34.412Z,94.21
2022-07-31T05:20:22.270Z,93.21
2022-07-31T05:23:19.337Z,93.20
2022-07-31T05:26:14.344Z,94.35
2022-07-31T05:28:43.836Z,93.38
2022-07-31T05:31:14.736Z,93.46
2022-07-31T05:33:44.657Z,93.24
2022-07-31T05:36:12.584Z,93.34
2022-07-31T05:38:40.532Z,92.69
2022-07-31T05:41:40.444Z,92.91
2022-07-31T05:44:28.961Z,92.57
2022-07-31T05:49:26.813Z,93.70
2022-07-31T05:51:56.364Z,95.30
2022-07-31T05:54:24.706Z,93.02
2022-07-31T05:57:11.017Z,91.47
2022-07-31T05:59:43.017Z,90.95
2022-07-31T06:02:10.883Z,90.53
2022-07-31T06:05:08.878Z,88.38
2022-07-31T06:07:36.871Z,87.96
2022-07-31T06:10:06.132Z,87.67
2022-07-31T06:12:34.055Z,88.37
2022-07-31T06:15:02.974Z,86.75
2022-07-31T06:17:43.749Z,86.62
2022-07-31T06:20:34.214Z,84.81
2022-07-31T06:23:20.094Z,82.99
2022-07-31T06:25:57.275Z,82.08
2022-07-31T06:28:25.424Z,82.10
2022-07-31T06:31:06.771Z,81.28
2022-07-31T06:33:37.062Z,79.56
2022-07-31T06:36:07.737Z,79.29
2022-07-31T06:38:41.534Z,78.54
2022-07-31T06:41:48.051Z,79.23
2022-07-31T06:44:32.697Z,78.35
2022-07-31T06:47:20.412Z,78.93
2022-07-31T06:49:57.861Z,78.85
2022-07-31T06:52:33.164Z,77.43
2022-07-31T06:55:01.388Z,77.97
2022-07-31T06:57:29.259Z,77.56
2022-07-31T06:59:57.073Z,78.13
2022-07-31T07:02:25.149Z,76.58
2022-07-31T07:05:00.049Z,75.68
2022-07-31T07:07:39.364Z,75.87
2022-07-31T07:10:10.158Z,76.62
2022-07-31T07:12:56.345Z,76.94
2022-07-31T07:15:24.309Z,76.84
2022-07-31T07:17:52.128Z,77.28
2022-07-31T07:20:33.343Z,76.66
2022-07-31T07:23:03.181Z,76.80
2022-07-31T07:25:48.784Z,76.42
2022-07-31T07:28:30.662Z,76.08
2022-07-31T07:31:03.716Z,74.32
2022-07-31T07:33:39.830Z,72.63
2022-07-31T07:36:21.742Z,70.78
2022-07-31T07:38:59.061Z,68.15
2022-07-31T07:41:27.154Z,68.40
2022-07-31T07:43:55.405Z,67.23
2022-07-31T07:46:27.327Z,63.90
2022-07-31T07:48:58.246Z,62.57
2022-07-31T07:51:59.897Z,62.31
2022-07-31T07:54:40.903Z,61.67
2022-07-31T07:57:31.983Z,61.23
2022-07-31T08:00:18.369Z,61.16
2022-07-31T08:03:46.745Z,57.52
2022-07-31T08:05:43.072Z,56.65
2022-07-31T08:08:12.231Z,55.80
2022-07-31T08:10:44.181Z,55.55
2022-07-31T08:13:19.027Z,56.08
2022-07-31T08:16:12.866Z,56.50
2022-07-31T08:18:46.161Z,55.71
2022-07-31T08:21:15.158Z,54.23
2022-07-31T08:23:43.247Z,56.31
2022-07-31T08:26:13.812Z,55.29
2022-07-31T08:28:49.925Z,53.22
2022-07-31T08:31:20.952Z,54.38
2022-07-31T08:34:02.907Z,52.02
2022-07-31T08:36:31.111Z,52.51
2022-07-31T08:38:58.929Z,51.81
2022-07-31T08:41:51.192Z,52.47
2022-07-31T08:44:25.841Z,52.22
2022-07-31T08:46:59.737Z,52.05
2022-07-31T08:49:31.562Z,52.74
2022-07-31T08:52:02.394Z,52.15
2022-07-31T08:54:51.347Z,52.10
2022-07-31T08:57:21.618Z,52.07
2022-07-31T08:59:52.343Z,48.98
2022-07-31T09:02:20.375Z,50.13
2022-07-31T09:05:11.399Z,49.13
2022-07-31T09:07:40.938Z,48.24
2022-07-31T09:10:20.673Z,48.59
2022-07-31T09:12:50.711Z,48.31
2022-07-31T09:15:27.649Z,47.70
2022-07-31T09:17:56.166Z,48.23
2022-07-31T09:20:26.582Z,48.59
2022-07-31T09:23:06.044Z,48.95
2022-07-31T09:25:35.691Z,48.13
2022-07-31T09:28:07.227Z,47.88
2022-07-31T09:30:35.996Z,49.53
2022-07-31T09:33:45.996Z,47.64
2022-07-31T09:36:43.139Z,47.51
2022-07-31T09:39:52.509Z,47.11
2022-07-31T09:42:46.091Z,46.94
2022-07-31T09:45:25.658Z,46.34
2022-07-31T09:48:05.940Z,47.60
2022-07-31T09:50:35.148Z,46.02
2022-07-31T09:53:03.110Z,45.72
2022-07-31T09:55:33.596Z,43.31
2022-07-31T09:58:02.955Z,45.87
2022-07-31T10:00:40.029Z,46.36
2022-07-31T10:03:09.045Z,45.99
2022-07-31T10:05:38.168Z,45.64
2022-07-31T10:08:07.115Z,46.69
2022-07-31T10:10:57.727Z,44.00
2022-07-31T10:13:37.429Z,45.10
2022-07-31T10:16:10.003Z,42.39
2022-07-31T10:19:00.562Z,44.20
2022-07-31T10:21:57.682Z,41.83
2022-07-31T10:24:34.164Z,41.55
2022-07-31T10:27:09.125Z,41.38
2022-07-31T10:29:40.885Z,39.66
2022-07-31T10:32:10.587Z,39.86
2022-07-31T10:34:58.771Z,40.99
2022-07-31T10:37:59.328Z,40.16
2022-07-31T10:41:03.631Z,38.56
2022-07-31T10:43:40.468Z,38.70
2022-07-31T10:46:28.506Z,38.21
2022-07-31T10:49:14.138Z,40.03
2022-07-31T10:52:28.324Z,40.43
2022-07-31T10:55:19.226Z,40.07
2022-07-31T10:58:16.172Z,39.06
2022-07-31T11:00:53.317Z,39.58
2022-07-31T11:03:41.728Z,39.17
2022-07-31T11:06:21.569Z,38.72
2022-07-31T11:08:57.440Z,40.23
2022-07-31T11:11:44.004Z,41.53
2022-07-31T11:14:47.306Z,40.17
2022-07-31T11:18:23.396Z,38.67
2022-07-31T11:20:33.434Z,38.84
2022-07-31T11:23:08.085Z,39.05
2022-07-31T11:25:37.510Z,38.70
2022-07-31T11:28:13.655Z,39.33
2022-07-31T11:30:53.272Z,39.82
2022-07-31T11:33:42.712Z,39.29
2022-07-31T11:36:13.299Z,37.29
2022-07-31T11:38:44.729Z,38.90
2022-07-31T11:41:15.220Z,37.36
2022-07-31T11:43:47.647Z,39.13
2022-07-31T11:46:24.965Z,38.62
2022-07-31T11:48:53.870Z,38.64
2022-07-31T11:51:22.721Z,40.06
2022-07-31T11:53:57.248Z,39.35
2022-07-31T11:56:27.950Z,36.70
2022-07-31T11:58:58.942Z,36.91
2022-07-31T12:01:30.992Z,36.34
2022-07-31T12:04:08.720Z,36.33
2022-07-31T12:06:37.261Z,35.84
2022-07-31T12:09:06.840Z,36.18
2022-07-31T12:11:34.838Z,35.08
2022-07-31T12:14:02.706Z,36.61
2022-07-31T12:16:40.609Z,35.05
2022-07-31T12:19:09.108Z,35.70
2022-07-31T12:21:40.106Z,36.71
2022-07-31T12:24:13.846Z,34.77
2022-07-31T12:26:45.051Z,34.76
2022-07-31T12:29:13.771Z,34.78
2022-07-31T12:31:46.424Z,35.32
2022-07-31T12:34:14.479Z,34.84
2022-07-31T12:36:43.033Z,33.63
2022-07-31T12:39:12.915Z,33.08
2022-07-31T12:41:44.174Z,33.54
2022-07-31T12:44:14.573Z,32.81
2022-07-31T12:46:42.917Z,32.79
2022-07-31T12:49:11.226Z,33.27
2022-07-31T12:51:46.128Z,34.10
2022-07-31T12:54:18.182Z,34.82
2022-07-31T12:56:47.647Z,34.32
2022-07-31T12:59:15.895Z,34.91
2022-07-31T13:01:43.832Z,33.86
2022-07-31T13:04:19.158Z,33.69
2022-07-31T13:06:51.478Z,33.82
2022-07-31T13:09:21.286Z,34.04
2022-07-31T13:11:52.243Z,34.85
2022-07-31T13:14:24.410Z,34.27
2022-07-31T13:16:54.925Z,35.01
2022-07-31T13:19:23.927Z,34.15
2022-07-31T13:21:52.610Z,34.92
2022-07-31T13:24:26.971Z,33.92
2022-07-31T13:26:55.254Z,34.23
2022-07-31T13:29:23.422Z,33.42
2022-07-31T13:31:52.379Z,34.07
2022-07-31T13:34:20.365Z,33.82
2022-07-31T13:36:48.217Z,34.04
2022-07-31T13:39:16.047Z,34.64
2022-07-31T13:41:45.432Z,35.46
2022-07-31T13:44:13.237Z,35.53
2022-07-31T13:46:41.220Z,35.51
2022-07-31T13:49:10.327Z,35.91
2022-07-31T13:51:39.438Z,35.64
2022-07-31T13:54:07.623Z,35.02
2022-07-31T13:56:42.211Z,36.64
2022-07-31T13:59:14.314Z,38.10
2022-07-31T14:02:04.734Z,37.98
2022-07-31T14:04:32.670Z,37.17
2022-07-31T14:07:03.225Z,36.37
2022-07-31T14:09:34.059Z,36.12
2022-07-31T14:12:04.263Z,36.53
2022-07-31T14:14:34.227Z,35.85
2022-07-31T14:17:02.172Z,35.92
2022-07-31T14:19:30.163Z,35.23
2022-07-31T14:22:10.925Z,35.58
2022-07-31T14:24:40.277Z,35.71
2022-07-31T14:27:08.355Z,36.24
2022-07-31T14:29:37.902Z,36.50
2022-07-31T14:32:06.632Z,36.03
2022-07-31T14:34:35.693Z,36.75
2022-07-31T14:37:04.777Z,36.79
2022-07-31T14:39:33.283Z,36.59
2022-07-31T14:42:01.350Z,37.33
2022-07-31T14:44:31.167Z,37.22
2022-07-31T14:47:00.651Z,37.61
2022-07-31T14:50:09.552Z,38.16
2022-07-31T14:52:17.205Z,38.80
2022-07-31T14:54:45.139Z,39.51
2022-07-31T14:57:13.202Z,40.21
2022-07-31T14:59:48.098Z,40.28
2022-07-31T15:02:21.778Z,39.70
2022-07-31T15:04:50.621Z,40.22
2022-07-31T15:07:34.744Z,41.02
2022-07-31T15:10:04.172Z,41.31
2022-07-31T15:12:32.817Z,42.17
2022-07-31T15:15:01.150Z,42.33
2022-07-31T15:17:30.900Z,42.76
2022-07-31T15:19:58.832Z,42.67
2022-07-31T15:22:27.006Z,42.77
2022-07-31T15:24:55.013Z,42.80
2022-07-31T15:27:24.077Z,42.34
2022-07-31T15:30:04.354Z,42.01
2022-07-31T15:32:36.768Z,41.83
2022-07-31T15:35:05.054Z,42.66
2022-07-31T15:37:35.839Z,42.33
2022-07-31T15:40:06.183Z,43.09
2022-07-31T15:42:38.694Z,43.05
2022-07-31T15:45:08.021Z,44.00
2022-07-31T15:47:37.621Z,45.77
2022-07-31T15:50:07.583Z,46.29
2022-07-31T15:52:35.676Z,47.04
2022-07-31T15:55:03.789Z,47.18
2022-07-31T15:57:31.727Z,47.13
2022-07-31T15:59:59.732Z,48.51
2022-07-31T16:02:28.014Z,48.19
2022-07-31T16:05:02.306Z,49.06
2022-07-31T16:08:29.261Z,52.84
2022-07-31T16:10:27.557Z,56.16
2022-07-31T16:12:55.886Z,61.99
2022-07-31T16:15:24.303Z,63.48
2022-07-31T16:17:54.494Z,66.89
2022-07-31T16:20:26.656Z,73.61
2022-07-31T16:22:57.203Z,76.13
2022-07-31T16:25:25.684Z,77.43
2022-07-31T16:27:53.993Z,78.76
2022-07-31T16:30:22.793Z,80.68
2022-07-31T16:32:51.415Z,81.14
2022-07-31T16:35:19.517Z,79.96
2022-07-31T16:37:51.898Z,83.64
2022-07-31T16:40:28.682Z,82.00
2022-07-31T16:43:00.763Z,80.63
2022-07-31T16:45:29.414Z,80.65
2022-07-31T16:47:57.434Z,78.99
2022-07-31T16:50:25.268Z,80.03
2022-07-31T16:52:55.243Z,79.89
2022-07-31T16:55:46.117Z,82.24
2022-07-31T16:58:12.261Z,80.85
2022-07-31T17:00:40.533Z,80.90
2022-07-31T17:03:58.528Z,82.54
2022-07-31T17:05:56.670Z,80.07
2022-07-31T17:08:26.573Z,80.95
2022-07-31T17:10:55.013Z,81.34
2022-07-31T17:13:23.344Z,80.71
2022-07-31T17:15:51.542Z,84.42
2022-07-31T17:18:24.877Z,85.05
2022-07-31T17:20:55.663Z,83.47
2022-07-31T17:23:27.771Z,82.22
2022-07-31T17:26:21.427Z,85.00
2022-07-31T17:28:51.212Z,86.33
2022-07-31T17:31:20.041Z,87.06
2022-07-31T17:33:59.506Z,87.59
2022-07-31T17:36:29.462Z,85.38
2022-07-31T17:38:58.857Z,84.53
2022-07-31T17:41:26.942Z,86.11
2022-07-31T17:43:55.414Z,85.44
2022-07-31T17:46:34.952Z,86.85
2022-07-31T17:49:19.196Z,91.28
2022-07-31T17:51:59.831Z,89.92
2022-07-31T17:54:30.941Z,91.24
2022-07-31T17:56:59.283Z,88.89
2022-07-31T17:59:27.311Z,89.23
2022-07-31T18:01:59.883Z,90.25
2022-07-31T18:04:28.179Z,92.34
2022-07-31T18:06:56.172Z,92.15
2022-07-31T18:09:24.460Z,94.47
2022-07-31T18:11:54.740Z,92.01
2022-07-31T18:14:24.553Z,92.94
2022-07-31T18:16:52.909Z,93.09
2022-07-31T18:19:21.979Z,90.02
2022-07-31T18:21:50.272Z,90.62
2022-07-31T18:24:18.254Z,91.01
2022-07-31T18:26:46.185Z,93.49
2022-07-31T18:29:16.912Z,92.82
2022-07-31T18:31:45.093Z,92.09
2022-07-31T18:34:13.087Z,90.71
2022-07-31T18:36:41.177Z,93.09
2022-07-31T18:39:09.106Z,92.32
2022-07-31T18:41:37.214Z,93.60
2022-07-31T18:44:05.366Z,94.11
2022-07-31T18:46:34.717Z,95.78
2022-07-31T18:49:02.828Z,95.26
2022-07-31T18:51:31.114Z,94.09
2022-07-31T18:53:59.105Z,93.40
2022-07-31T18:56:27.356Z,93.28
2022-07-31T18:58:55.688Z,93.54
2022-07-31T19:01:24.410Z,92.32
2022-07-31T19:03:55.077Z,92.85
2022-07-31T19:06:23.706Z,94.70
2022-07-31T19:08:52.193Z,95.06
2022-07-31T19:11:20.295Z,94.16
2022-07-31T19:13:48.565Z,93.75
2022-07-31T19:16:17.666Z,95.54
2022-07-31T19:18:45.907Z,94.51
2022-07-31T19:21:23.741Z,93.99
2022-07-31T19:24:09.189Z,94.35
2022-07-31T19:26:37.528Z,93.51
2022-07-31T19:29:05.870Z,92.05
2022-07-31T19:31:33.916Z,93.23
2022-07-31T19:34:01.804Z,90.98
2022-07-31T19:36:31.311Z,91.54
2022-07-31T19:38:59.517Z,91.67
2022-07-31T19:41:27.337Z,91.54
2022-07-31T19:43:55.227Z,91.09
2022-07-31T19:46:23.255Z,92.08
2022-07-31T19:48:51.194Z,92.18
2022-07-31T19:51:19.459Z,93.53
2022-07-31T19:53:48.726Z,94.00
2022-07-31T19:56:20.821Z,95.58
2022-07-31T19:58:49.588Z,96.99
2022-07-31T20:01:20.119Z,96.33
2022-07-31T20:03:48.613Z,97.03
2022-07-31T20:06:16.892Z,97.61
2022-07-31T20:08:44.946Z,97.25
2022-07-31T20:11:14.308Z,97.79
2022-07-31T20:13:42.252Z,98.18
2022-07-31T20:16:11.259Z,99.54
2022-07-31T20:18:39.521Z,99.01
2022-07-31T20:21:14.390Z,97.62
2022-07-31T20:23:42.587Z,98.22
2022-07-31T20:26:12.596Z,98.61
2022-07-31T20:28:42.587Z,98.44
2022-07-31T20:31:16.291Z,100.00
2022-07-31T20:33:56.966Z,100.00
2022-07-31T20:36:25.620Z,100.00
2022-07-31T20:38:53.526Z,100.00
2022-07-31T20:41:21.739Z,100.00
2022-07-31T20:43:51.405Z,100.00
2022-07-31T20:46:19.455Z,100.00
2022-07-31T20:48:47.465Z,100.00
2022-07-31T20:51:20.286Z,100.00
2022-07-31T20:53:48.384Z,100.00
2022-07-31T20:56:16.622Z,100.00
2022-07-31T20:58:50.887Z,100.00
2022-07-31T21:01:21.267Z,100.00
2022-07-31T21:03:49.976Z,100.00
2022-07-31T21:06:17.892Z,100.00
2022-07-31T21:08:46.727Z,100.00
2022-07-31T21:11:14.582Z,100.00
2022-07-31T21:13:43.190Z,100.00
2022-07-31T21:16:11.060Z,100.00
2022-07-31T21:18:43.333Z,100.00
2022-07-31T21:21:11.663Z,100.00
2022-07-31T21:23:39.682Z,100.00
2022-07-31T21:26:08.724Z,100.00
2022-07-31T21:28:36.989Z,100.00
2022-07-31T21:31:05.434Z,100.00
2022-07-31T21:33:34.015Z,100.00
2022-07-31T21:36:05.939Z,100.00
2022-07-31T21:38:36.161Z,100.00
2022-07-31T21:41:04.778Z,100.00
2022-07-31T21:43:44.627Z,100.00
2022-07-31T21:46:23.571Z,100.00
2022-07-31T21:48:52.736Z,100.00
2022-07-31T21:51:22.612Z,100.00
2022-07-31T21:53:50.586Z,100.00
2022-07-31T21:56:18.518Z,100.00
2022-07-31T21:58:46.627Z,100.00
2022-07-31T22:01:15.236Z,100.00
2022-07-31T22:03:43.804Z,100.00
2022-07-31T22:06:29.186Z,100.00
2022-07-31T22:08:58.383Z,100.00
2022-07-31T22:11:26.697Z,100.00
2022-07-31T22:13:54.908Z,100.00
2022-07-31T22:16:23.454Z,100.00
2022-07-31T22:18:51.805Z,100.00
2022-07-31T22:21:20.547Z,100.00
2022-07-31T22:23:49.359Z,100.00
2022-07-31T22:26:19.293Z,100.00
2022-07-31T22:28:48.172Z,100.00
2022-07-31T22:31:16.623Z,100.00
2022-07-31T22:33:44.931Z,100.00
2022-07-31T22:36:13.273Z,100.00
2022-07-31T22:38:44.538Z,100.00
2022-07-31T22:41:13.383Z,100.00
2022-07-31T22:44:11.541Z,100.00
2022-07-31T22:46:32.843Z,100.00
2022-07-31T22:49:02.940Z,100.00
2022-07-31T22:51:33.494Z,100.00
2022-07-31T22:54:03.420Z,100.00
2022-07-31T22:56:31.346Z,100.00
2022-07-31T22:59:00.623Z,100.00
2022-07-31T23:01:28.541Z,100.00
2022-07-31T23:03:56.381Z,100.00
2022-07-31T23:06:30.942Z,100.00
2022-07-31T23:09:01.607Z,100.00
2022-07-31T23:11:30.083Z,100.00
2022-07-31T23:13:58.548Z,100.00
2022-07-31T23:16:28.008Z,100.00
2022-07-31T23:18:56.605Z,100.00
2022-07-31T23:21:24.864Z,100.00
2022-07-31T23:23:53.381Z,100.00
2022-07-31T23:26:23.955Z,100.00
2022-07-31T23:28:52.961Z,100.00
2022-07-31T23:31:21.645Z,100.00
2022-07-31T23:33:52.709Z,100.00
2022-07-31T23:36:20.756Z,100.00
2022-07-31T23:38:49.064Z,100.00
2022-07-31T23:41:37.101Z,100.00
2022-07-31T23:44:04.526Z,100.00
2022-07-31T23:46:32.760Z,100.00
2022-07-31T23:49:02.112Z,100.00
2022-07-31T23:51:30.049Z,100.00
2022-07-31T23:53:58.172Z,100.00
2022-07-31T23:56:27.741Z,100.00
2022-07-31T23:58:56.163Z,100.00
